sensor_id;sensor_type;location;lat;lon;timestamp;temperature;humidity
50570;DHT22;36525;49.398;7.614;2022-11-25T00:01:28;4.10;99.90
50570;DHT22;36525;49.398;7.614;2022-11-25T00:03:57;4.10;99.90
50570;DHT22;36525;49.398;7.614;2022-11-25T00:06:27;4.20;99.90
50570;DHT22;36525;49.398;7.614;2022-11-25T00:08:58;4.20;99.90
50570;DHT22;36525;49.398;7.614;2022-11-25T00:11:26;4.20;99.90
50570;DHT22;36525;49.398;7.614;2022-11-25T00:13:55;4.30;99.90
50570;DHT22;36525;49.398;7.614;2022-11-25T00:16:23;4.30;99.90
50570;DHT22;36525;49.398;7.614;2022-11-25T00:18:54;4.40;99.90
50570;DHT22;36525;49.398;7.614;2022-11-25T00:21:24;4.50;99.90
50570;DHT22;36525;49.398;7.614;2022-11-25T00:23:56;4.50;99.90
50570;DHT22;36525;49.398;7.614;2022-11-25T00:26:25;4.60;99.90
50570;DHT22;36525;49.398;7.614;2022-11-25T00:28:53;4.60;99.90
50570;DHT22;36525;49.398;7.614;2022-11-25T00:31:25;4.60;99.90
50570;DHT22;36525;49.398;7.614;2022-11-25T00:33:53;4.70;99.90
50570;DHT22;36525;49.398;7.614;2022-11-25T00:36:24;4.70;99.90
50570;DHT22;36525;49.398;7.614;2022-11-25T00:39:04;4.80;99.90
50570;DHT22;36525;49.398;7.614;2022-11-25T00:44:18;4.90;99.90
50570;DHT22;36525;49.398;7.614;2022-11-25T00:47:13;4.90;99.90
50570;DHT22;36525;49.398;7.614;2022-11-25T00:49:46;4.80;99.90
50570;DHT22;36525;49.398;7.614;2022-11-25T00:52:19;4.90;99.90
50570;DHT22;36525;49.398;7.614;2022-11-25T00:54:48;4.80;99.90
50570;DHT22;36525;49.398;7.614;2022-11-25T00:57:18;4.80;99.90
50570;DHT22;36525;49.398;7.614;2022-11-25T00:59:46;4.80;99.90
50570;DHT22;36525;49.398;7.614;2022-11-25T01:02:15;4.70;99.90
50570;DHT22;36525;49.398;7.614;2022-11-25T01:04:43;4.60;99.90
50570;DHT22;36525;49.398;7.614;2022-11-25T01:07:10;4.60;99.90
50570;DHT22;36525;49.398;7.614;2022-11-25T01:09:37;4.50;99.90
50570;DHT22;36525;49.398;7.614;2022-11-25T01:12:04;4.50;99.90
50570;DHT22;36525;49.398;7.614;2022-11-25T01:14:32;4.60;99.90
50570;DHT22;36525;49.398;7.614;2022-11-25T01:17:00;4.60;99.90
50570;DHT22;36525;49.398;7.614;2022-11-25T01:19:27;4.60;99.90
50570;DHT22;36525;49.398;7.614;2022-11-25T01:21:54;4.70;99.90
50570;DHT22;36525;49.398;7.614;2022-11-25T01:24:21;4.70;99.90
50570;DHT22;36525;49.398;7.614;2022-11-25T01:26:49;4.80;99.90
50570;DHT22;36525;49.398;7.614;2022-11-25T01:29:18;4.80;99.90
50570;DHT22;36525;49.398;7.614;2022-11-25T01:31:45;4.80;99.90
50570;DHT22;36525;49.398;7.614;2022-11-25T01:34:18;4.80;99.90
50570;DHT22;36525;49.398;7.614;2022-11-25T01:36:47;4.90;99.90
50570;DHT22;36525;49.398;7.614;2022-11-25T01:39:22;5.00;99.90
50570;DHT22;36525;49.398;7.614;2022-11-25T01:41:58;5.00;99.90
50570;DHT22;36525;49.398;7.614;2022-11-25T01:44:30;5.00;99.90
50570;DHT22;36525;49.398;7.614;2022-11-25T01:49:35;4.90;99.90
50570;DHT22;36525;49.398;7.614;2022-11-25T01:55:04;4.90;99.90
50570;DHT22;36525;49.398;7.614;2022-11-25T01:58:21;5.00;99.90
50570;DHT22;36525;49.398;7.614;2022-11-25T02:00:29;5.00;99.90
50570;DHT22;36525;49.398;7.614;2022-11-25T02:02:57;5.10;99.90
50570;DHT22;36525;49.398;7.614;2022-11-25T02:05:41;5.10;99.90
50570;DHT22;36525;49.398;7.614;2022-11-25T02:08:23;5.10;99.90
50570;DHT22;36525;49.398;7.614;2022-11-25T02:10:54;5.30;99.90
50570;DHT22;36525;49.398;7.614;2022-11-25T02:13:22;5.40;99.90
50570;DHT22;36525;49.398;7.614;2022-11-25T02:15:49;5.50;99.90
50570;DHT22;36525;49.398;7.614;2022-11-25T02:18:16;5.50;99.90
50570;DHT22;36525;49.398;7.614;2022-11-25T02:20:43;5.50;99.90
50570;DHT22;36525;49.398;7.614;2022-11-25T02:23:23;5.60;99.90
50570;DHT22;36525;49.398;7.614;2022-11-25T02:25:54;5.60;99.90
50570;DHT22;36525;49.398;7.614;2022-11-25T02:28:23;5.70;99.90
50570;DHT22;36525;49.398;7.614;2022-11-25T02:30:52;5.70;99.90
50570;DHT22;36525;49.398;7.614;2022-11-25T02:33:20;5.90;99.90
50570;DHT22;36525;49.398;7.614;2022-11-25T02:36:00;5.90;99.90
50570;DHT22;36525;49.398;7.614;2022-11-25T02:38:43;5.90;99.90
50570;DHT22;36525;49.398;7.614;2022-11-25T02:41:27;5.90;99.90
50570;DHT22;36525;49.398;7.614;2022-11-25T02:43:57;5.80;99.90
50570;DHT22;36525;49.398;7.614;2022-11-25T02:46:26;5.90;99.90
50570;DHT22;36525;49.398;7.614;2022-11-25T02:48:56;5.90;99.90
50570;DHT22;36525;49.398;7.614;2022-11-25T02:51:36;5.90;99.90
50570;DHT22;36525;49.398;7.614;2022-11-25T02:54:05;6.00;99.90
50570;DHT22;36525;49.398;7.614;2022-11-25T02:56:34;6.00;99.90
50570;DHT22;36525;49.398;7.614;2022-11-25T02:59:02;6.10;99.90
50570;DHT22;36525;49.398;7.614;2022-11-25T03:01:29;6.20;99.90
50570;DHT22;36525;49.398;7.614;2022-11-25T03:03:58;6.30;99.90
50570;DHT22;36525;49.398;7.614;2022-11-25T03:06:25;6.40;99.90
50570;DHT22;36525;49.398;7.614;2022-11-25T03:08:52;6.50;99.90
50570;DHT22;36525;49.398;7.614;2022-11-25T03:11:19;6.50;99.90
50570;DHT22;36525;49.398;7.614;2022-11-25T03:13:46;6.60;99.90
50570;DHT22;36525;49.398;7.614;2022-11-25T03:16:13;6.70;99.90
50570;DHT22;36525;49.398;7.614;2022-11-25T03:18:40;6.80;99.90
50570;DHT22;36525;49.398;7.614;2022-11-25T03:21:06;6.80;99.90
50570;DHT22;36525;49.398;7.614;2022-11-25T03:23:33;6.80;99.90
50570;DHT22;36525;49.398;7.614;2022-11-25T03:26:05;6.80;99.90
50570;DHT22;36525;49.398;7.614;2022-11-25T03:28:32;6.80;99.90
50570;DHT22;36525;49.398;7.614;2022-11-25T03:30:59;6.80;99.90
50570;DHT22;36525;49.398;7.614;2022-11-25T03:33:26;6.70;99.90
50570;DHT22;36525;49.398;7.614;2022-11-25T03:35:53;6.70;99.90
50570;DHT22;36525;49.398;7.614;2022-11-25T03:38:20;6.70;99.90
50570;DHT22;36525;49.398;7.614;2022-11-25T03:40:46;6.70;99.90
50570;DHT22;36525;49.398;7.614;2022-11-25T03:43:13;6.70;99.90
50570;DHT22;36525;49.398;7.614;2022-11-25T03:45:40;6.60;99.90
50570;DHT22;36525;49.398;7.614;2022-11-25T03:48:07;6.50;99.90
50570;DHT22;36525;49.398;7.614;2022-11-25T03:50:34;6.50;99.90
50570;DHT22;36525;49.398;7.614;2022-11-25T03:53:01;6.50;99.90
50570;DHT22;36525;49.398;7.614;2022-11-25T03:55:28;6.50;99.90
50570;DHT22;36525;49.398;7.614;2022-11-25T03:57:55;6.40;99.90
50570;DHT22;36525;49.398;7.614;2022-11-25T04:00:22;6.40;99.90
50570;DHT22;36525;49.398;7.614;2022-11-25T04:02:49;6.30;99.90
50570;DHT22;36525;49.398;7.614;2022-11-25T04:05:16;6.30;99.90
50570;DHT22;36525;49.398;7.614;2022-11-25T04:07:43;6.20;99.90
50570;DHT22;36525;49.398;7.614;2022-11-25T04:10:10;6.30;99.90
50570;DHT22;36525;49.398;7.614;2022-11-25T04:12:37;6.30;99.90
50570;DHT22;36525;49.398;7.614;2022-11-25T04:15:16;6.30;99.90
50570;DHT22;36525;49.398;7.614;2022-11-25T04:17:44;6.30;99.90
50570;DHT22;36525;49.398;7.614;2022-11-25T04:20:12;6.30;99.90
50570;DHT22;36525;49.398;7.614;2022-11-25T04:22:39;6.40;99.90
50570;DHT22;36525;49.398;7.614;2022-11-25T04:25:07;6.40;99.90
50570;DHT22;36525;49.398;7.614;2022-11-25T04:27:35;6.40;99.90
50570;DHT22;36525;49.398;7.614;2022-11-25T04:30:02;6.50;99.90
50570;DHT22;36525;49.398;7.614;2022-11-25T04:32:29;6.50;99.90
50570;DHT22;36525;49.398;7.614;2022-11-25T04:34:56;6.60;99.90
50570;DHT22;36525;49.398;7.614;2022-11-25T04:37:23;6.70;99.90
50570;DHT22;36525;49.398;7.614;2022-11-25T04:39:50;6.70;99.90
50570;DHT22;36525;49.398;7.614;2022-11-25T04:42:17;6.70;99.90
50570;DHT22;36525;49.398;7.614;2022-11-25T04:45:01;6.80;99.90
50570;DHT22;36525;49.398;7.614;2022-11-25T04:47:49;6.90;99.90
50570;DHT22;36525;49.398;7.614;2022-11-25T04:50:19;6.90;99.90
50570;DHT22;36525;49.398;7.614;2022-11-25T04:52:47;7.00;99.90
50570;DHT22;36525;49.398;7.614;2022-11-25T04:55:14;7.00;99.90
50570;DHT22;36525;49.398;7.614;2022-11-25T04:57:41;7.10;99.90
50570;DHT22;36525;49.398;7.614;2022-11-25T05:00:09;7.10;99.90
50570;DHT22;36525;49.398;7.614;2022-11-25T05:02:36;7.20;99.90
50570;DHT22;36525;49.398;7.614;2022-11-25T05:05:04;7.20;99.90
50570;DHT22;36525;49.398;7.614;2022-11-25T05:07:32;7.30;99.90
50570;DHT22;36525;49.398;7.614;2022-11-25T05:09:59;7.30;99.90
50570;DHT22;36525;49.398;7.614;2022-11-25T05:12:28;7.20;99.90
50570;DHT22;36525;49.398;7.614;2022-11-25T05:14:55;7.20;99.90
50570;DHT22;36525;49.398;7.614;2022-11-25T05:17:24;7.20;99.90
50570;DHT22;36525;49.398;7.614;2022-11-25T05:19:55;7.20;99.90
50570;DHT22;36525;49.398;7.614;2022-11-25T05:22:29;7.20;99.90
50570;DHT22;36525;49.398;7.614;2022-11-25T05:24:57;7.20;99.90
50570;DHT22;36525;49.398;7.614;2022-11-25T05:27:25;7.10;99.90
50570;DHT22;36525;49.398;7.614;2022-11-25T05:29:53;7.10;99.90
50570;DHT22;36525;49.398;7.614;2022-11-25T05:32:22;7.20;99.90
50570;DHT22;36525;49.398;7.614;2022-11-25T05:34:49;7.20;99.90
50570;DHT22;36525;49.398;7.614;2022-11-25T05:37:16;7.20;99.90
50570;DHT22;36525;49.398;7.614;2022-11-25T05:39:49;7.20;99.90
50570;DHT22;36525;49.398;7.614;2022-11-25T05:42:16;7.20;99.90
50570;DHT22;36525;49.398;7.614;2022-11-25T05:44:43;7.30;99.90
50570;DHT22;36525;49.398;7.614;2022-11-25T05:47:10;7.30;99.90
50570;DHT22;36525;49.398;7.614;2022-11-25T05:49:36;7.40;99.90
50570;DHT22;36525;49.398;7.614;2022-11-25T05:52:03;7.40;99.90
50570;DHT22;36525;49.398;7.614;2022-11-25T05:54:30;7.40;99.90
50570;DHT22;36525;49.398;7.614;2022-11-25T05:56:57;7.40;99.90
50570;DHT22;36525;49.398;7.614;2022-11-25T05:59:24;7.50;99.90
50570;DHT22;36525;49.398;7.614;2022-11-25T06:04:21;7.40;99.90
50570;DHT22;36525;49.398;7.614;2022-11-25T06:06:48;7.40;99.90
50570;DHT22;36525;49.398;7.614;2022-11-25T06:09:15;7.30;99.90
50570;DHT22;36525;49.398;7.614;2022-11-25T06:11:42;7.40;99.90
50570;DHT22;36525;49.398;7.614;2022-11-25T06:14:09;7.40;99.90
50570;DHT22;36525;49.398;7.614;2022-11-25T06:16:36;7.40;99.90
50570;DHT22;36525;49.398;7.614;2022-11-25T06:19:03;7.40;99.90
50570;DHT22;36525;49.398;7.614;2022-11-25T06:21:32;7.40;99.90
50570;DHT22;36525;49.398;7.614;2022-11-25T06:23:59;7.40;99.90
50570;DHT22;36525;49.398;7.614;2022-11-25T06:26:26;7.40;99.90
50570;DHT22;36525;49.398;7.614;2022-11-25T06:28:55;7.40;99.90
50570;DHT22;36525;49.398;7.614;2022-11-25T06:31:24;7.40;99.90
50570;DHT22;36525;49.398;7.614;2022-11-25T06:33:53;7.40;99.90
50570;DHT22;36525;49.398;7.614;2022-11-25T06:36:21;7.40;99.90
50570;DHT22;36525;49.398;7.614;2022-11-25T06:38:50;7.40;99.90
50570;DHT22;36525;49.398;7.614;2022-11-25T06:41:19;7.40;99.90
50570;DHT22;36525;49.398;7.614;2022-11-25T06:43:47;7.40;99.90
50570;DHT22;36525;49.398;7.614;2022-11-25T06:46:15;7.30;99.90
50570;DHT22;36525;49.398;7.614;2022-11-25T06:48:51;7.20;99.90
50570;DHT22;36525;49.398;7.614;2022-11-25T06:51:19;7.10;99.90
50570;DHT22;36525;49.398;7.614;2022-11-25T06:53:46;7.00;99.90
50570;DHT22;36525;49.398;7.614;2022-11-25T06:56:19;7.00;99.90
50570;DHT22;36525;49.398;7.614;2022-11-25T06:58:48;6.90;99.90
50570;DHT22;36525;49.398;7.614;2022-11-25T07:01:25;6.90;99.90
50570;DHT22;36525;49.398;7.614;2022-11-25T07:03:59;6.90;99.90
50570;DHT22;36525;49.398;7.614;2022-11-25T07:06:30;6.90;99.90
50570;DHT22;36525;49.398;7.614;2022-11-25T07:08:57;6.90;99.90
50570;DHT22;36525;49.398;7.614;2022-11-25T07:11:30;7.00;99.90
50570;DHT22;36525;49.398;7.614;2022-11-25T07:14:01;7.00;99.90
50570;DHT22;36525;49.398;7.614;2022-11-25T07:16:31;7.00;99.90
50570;DHT22;36525;49.398;7.614;2022-11-25T07:18:59;7.00;99.90
50570;DHT22;36525;49.398;7.614;2022-11-25T07:21:28;7.00;99.90
50570;DHT22;36525;49.398;7.614;2022-11-25T07:24:01;6.90;99.90
50570;DHT22;36525;49.398;7.614;2022-11-25T07:26:33;6.80;99.90
50570;DHT22;36525;49.398;7.614;2022-11-25T07:29:04;6.80;99.90
50570;DHT22;36525;49.398;7.614;2022-11-25T07:31:52;6.90;99.90
50570;DHT22;36525;49.398;7.614;2022-11-25T07:34:19;6.90;99.90
50570;DHT22;36525;49.398;7.614;2022-11-25T07:36:48;6.90;99.90
50570;DHT22;36525;49.398;7.614;2022-11-25T07:39:18;6.80;99.90
50570;DHT22;36525;49.398;7.614;2022-11-25T07:41:53;6.80;99.90
50570;DHT22;36525;49.398;7.614;2022-11-25T07:44:21;6.80;99.90
50570;DHT22;36525;49.398;7.614;2022-11-25T07:46:49;6.80;99.90
50570;DHT22;36525;49.398;7.614;2022-11-25T07:49:23;6.80;99.90
50570;DHT22;36525;49.398;7.614;2022-11-25T07:51:55;6.80;99.90
50570;DHT22;36525;49.398;7.614;2022-11-25T07:54:25;6.70;99.90
50570;DHT22;36525;49.398;7.614;2022-11-25T07:56:52;6.70;99.90
50570;DHT22;36525;49.398;7.614;2022-11-25T07:59:20;6.70;99.90
50570;DHT22;36525;49.398;7.614;2022-11-25T08:01:52;6.70;99.90
50570;DHT22;36525;49.398;7.614;2022-11-25T08:04:21;6.70;99.90
50570;DHT22;36525;49.398;7.614;2022-11-25T08:06:50;6.70;99.90
50570;DHT22;36525;49.398;7.614;2022-11-25T08:09:20;6.70;99.90
50570;DHT22;36525;49.398;7.614;2022-11-25T08:11:48;6.70;99.90
50570;DHT22;36525;49.398;7.614;2022-11-25T08:14:16;6.70;99.90
50570;DHT22;36525;49.398;7.614;2022-11-25T08:16:44;6.80;99.90
50570;DHT22;36525;49.398;7.614;2022-11-25T08:19:13;6.80;99.90
50570;DHT22;36525;49.398;7.614;2022-11-25T08:21:41;6.80;99.90
50570;DHT22;36525;49.398;7.614;2022-11-25T08:24:13;6.80;99.90
50570;DHT22;36525;49.398;7.614;2022-11-25T08:26:42;6.80;99.90
50570;DHT22;36525;49.398;7.614;2022-11-25T08:29:11;6.80;99.90
50570;DHT22;36525;49.398;7.614;2022-11-25T08:31:40;6.80;99.90
50570;DHT22;36525;49.398;7.614;2022-11-25T08:34:09;6.90;99.90
50570;DHT22;36525;49.398;7.614;2022-11-25T08:36:42;6.90;99.90
50570;DHT22;36525;49.398;7.614;2022-11-25T08:39:14;6.90;99.90
50570;DHT22;36525;49.398;7.614;2022-11-25T08:42:03;6.90;99.90
50570;DHT22;36525;49.398;7.614;2022-11-25T08:44:30;7.00;99.90
50570;DHT22;36525;49.398;7.614;2022-11-25T08:46:57;7.00;99.90
50570;DHT22;36525;49.398;7.614;2022-11-25T08:49:25;7.10;99.90
50570;DHT22;36525;49.398;7.614;2022-11-25T08:51:52;7.10;99.90
50570;DHT22;36525;49.398;7.614;2022-11-25T08:54:19;7.20;99.90
50570;DHT22;36525;49.398;7.614;2022-11-25T08:56:46;7.40;99.90
50570;DHT22;36525;49.398;7.614;2022-11-25T08:59:13;7.50;99.90
50570;DHT22;36525;49.398;7.614;2022-11-25T09:01:39;7.50;99.90
50570;DHT22;36525;49.398;7.614;2022-11-25T09:04:07;7.50;99.90
50570;DHT22;36525;49.398;7.614;2022-11-25T09:06:33;7.50;99.90
50570;DHT22;36525;49.398;7.614;2022-11-25T09:09:00;7.50;99.90
50570;DHT22;36525;49.398;7.614;2022-11-25T09:11:27;7.60;99.90
50570;DHT22;36525;49.398;7.614;2022-11-25T09:13:55;7.50;99.90
50570;DHT22;36525;49.398;7.614;2022-11-25T09:16:22;7.60;99.90
50570;DHT22;36525;49.398;7.614;2022-11-25T09:18:52;7.60;99.90
50570;DHT22;36525;49.398;7.614;2022-11-25T09:21:22;7.70;99.90
50570;DHT22;36525;49.398;7.614;2022-11-25T09:23:52;7.70;99.90
50570;DHT22;36525;49.398;7.614;2022-11-25T09:26:25;7.70;99.90
50570;DHT22;36525;49.398;7.614;2022-11-25T09:28:55;7.80;99.90
50570;DHT22;36525;49.398;7.614;2022-11-25T09:31:22;7.90;99.90
50570;DHT22;36525;49.398;7.614;2022-11-25T09:33:49;7.90;99.90
50570;DHT22;36525;49.398;7.614;2022-11-25T09:36:18;7.90;99.90
50570;DHT22;36525;49.398;7.614;2022-11-25T09:38:46;8.00;99.90
50570;DHT22;36525;49.398;7.614;2022-11-25T09:50:52;8.30;99.90
50570;DHT22;36525;49.398;7.614;2022-11-25T09:56:30;8.50;99.90
50570;DHT22;36525;49.398;7.614;2022-11-25T09:59:14;8.50;99.90
50570;DHT22;36525;49.398;7.614;2022-11-25T10:01:57;8.50;99.90
50570;DHT22;36525;49.398;7.614;2022-11-25T10:04:32;8.50;99.90
50570;DHT22;36525;49.398;7.614;2022-11-25T10:07:04;8.60;99.90
50570;DHT22;36525;49.398;7.614;2022-11-25T10:09:40;8.70;99.90
50570;DHT22;36525;49.398;7.614;2022-11-25T10:12:28;8.80;99.90
50570;DHT22;36525;49.398;7.614;2022-11-25T10:15:18;8.90;99.90
50570;DHT22;36525;49.398;7.614;2022-11-25T10:17:56;8.90;99.90
50570;DHT22;36525;49.398;7.614;2022-11-25T10:20:29;8.80;99.90
50570;DHT22;36525;49.398;7.614;2022-11-25T10:23:10;8.80;99.90
50570;DHT22;36525;49.398;7.614;2022-11-25T10:25:45;8.90;99.90
50570;DHT22;36525;49.398;7.614;2022-11-25T10:28:19;8.90;99.90
50570;DHT22;36525;49.398;7.614;2022-11-25T10:31:17;9.00;99.90
50570;DHT22;36525;49.398;7.614;2022-11-25T10:33:54;9.00;99.90
50570;DHT22;36525;49.398;7.614;2022-11-25T10:36:32;9.00;99.90
50570;DHT22;36525;49.398;7.614;2022-11-25T10:42:01;8.80;99.90
50570;DHT22;36525;49.398;7.614;2022-11-25T10:44:40;8.90;99.90
50570;DHT22;36525;49.398;7.614;2022-11-25T10:50:26;9.30;99.90
50570;DHT22;36525;49.398;7.614;2022-11-25T10:53:05;9.30;99.90
50570;DHT22;36525;49.398;7.614;2022-11-25T10:55:37;9.20;99.90
50570;DHT22;36525;49.398;7.614;2022-11-25T10:58:40;9.10;99.90
50570;DHT22;36525;49.398;7.614;2022-11-25T11:03:49;9.30;99.90
50570;DHT22;36525;49.398;7.614;2022-11-25T11:06:35;9.40;99.90
50570;DHT22;36525;49.398;7.614;2022-11-25T11:09:34;9.50;99.90
50570;DHT22;36525;49.398;7.614;2022-11-25T11:12:22;9.60;99.90
50570;DHT22;36525;49.398;7.614;2022-11-25T11:14:49;9.60;99.90
50570;DHT22;36525;49.398;7.614;2022-11-25T11:17:33;9.60;99.90
50570;DHT22;36525;49.398;7.614;2022-11-25T11:22:33;9.70;99.90
50570;DHT22;36525;49.398;7.614;2022-11-25T11:27:48;10.10;99.90
50570;DHT22;36525;49.398;7.614;2022-11-25T11:30:19;10.20;99.90
50570;DHT22;36525;49.398;7.614;2022-11-25T11:33:03;10.20;99.90
50570;DHT22;36525;49.398;7.614;2022-11-25T11:44:05;10.00;99.90
50570;DHT22;36525;49.398;7.614;2022-11-25T11:49:48;10.30;99.90
50570;DHT22;36525;49.398;7.614;2022-11-25T11:55:47;10.40;99.90
50570;DHT22;36525;49.398;7.614;2022-11-25T12:02:11;10.50;99.90
50570;DHT22;36525;49.398;7.614;2022-11-25T12:04:56;10.50;99.90
50570;DHT22;36525;49.398;7.614;2022-11-25T12:10:46;10.40;99.90
50570;DHT22;36525;49.398;7.614;2022-11-25T12:13:32;10.50;99.90
50570;DHT22;36525;49.398;7.614;2022-11-25T12:16:09;10.40;99.90
50570;DHT22;36525;49.398;7.614;2022-11-25T12:22:13;10.60;99.90
50570;DHT22;36525;49.398;7.614;2022-11-25T12:25:34;10.70;99.90
50570;DHT22;36525;49.398;7.614;2022-11-25T12:28:14;10.90;99.90
50570;DHT22;36525;49.398;7.614;2022-11-25T12:34:10;11.00;99.90
50570;DHT22;36525;49.398;7.614;2022-11-25T12:36:42;10.90;99.90
50570;DHT22;36525;49.398;7.614;2022-11-25T12:39:33;10.90;99.90
50570;DHT22;36525;49.398;7.614;2022-11-25T12:42:15;10.90;99.90
50570;DHT22;36525;49.398;7.614;2022-11-25T12:45:00;11.10;99.90
50570;DHT22;36525;49.398;7.614;2022-11-25T12:47:29;11.00;99.90
50570;DHT22;36525;49.398;7.614;2022-11-25T12:49:56;11.00;99.90
50570;DHT22;36525;49.398;7.614;2022-11-25T13:01:28;10.90;99.90
50570;DHT22;36525;49.398;7.614;2022-11-25T13:04:41;11.10;99.90
50570;DHT22;36525;49.398;7.614;2022-11-25T13:11:24;11.60;99.90
50570;DHT22;36525;49.398;7.614;2022-11-25T13:13:52;11.50;99.90
50570;DHT22;36525;49.398;7.614;2022-11-25T13:16:27;11.40;99.90
50570;DHT22;36525;49.398;7.614;2022-11-25T13:18:56;11.10;99.90
50570;DHT22;36525;49.398;7.614;2022-11-25T13:21:24;10.90;99.90
50570;DHT22;36525;49.398;7.614;2022-11-25T13:23:58;10.90;99.90
50570;DHT22;36525;49.398;7.614;2022-11-25T13:28:56;10.70;99.90
50570;DHT22;36525;49.398;7.614;2022-11-25T13:34:34;11.90;99.90
50570;DHT22;36525;49.398;7.614;2022-11-25T13:37:37;13.20;99.90
50570;DHT22;36525;49.398;7.614;2022-11-25T13:40:35;12.80;99.90
50570;DHT22;36525;49.398;7.614;2022-11-25T13:43:04;12.30;99.90
50570;DHT22;36525;49.398;7.614;2022-11-25T13:45:46;11.90;99.90
50570;DHT22;36525;49.398;7.614;2022-11-25T13:48:19;11.40;99.90
50570;DHT22;36525;49.398;7.614;2022-11-25T13:50:50;11.10;99.90
50570;DHT22;36525;49.398;7.614;2022-11-25T13:53:37;10.80;99.90
50570;DHT22;36525;49.398;7.614;2022-11-25T14:01:38;10.50;99.90
50570;DHT22;36525;49.398;7.614;2022-11-25T14:04:07;10.40;99.90
50570;DHT22;36525;49.398;7.614;2022-11-25T14:07:00;10.30;99.90
50570;DHT22;36525;49.398;7.614;2022-11-25T14:12:48;10.20;99.90
50570;DHT22;36525;49.398;7.614;2022-11-25T14:15:37;10.20;99.90
50570;DHT22;36525;49.398;7.614;2022-11-25T14:18:39;10.20;99.90
50570;DHT22;36525;49.398;7.614;2022-11-25T14:24:41;10.30;99.90
50570;DHT22;36525;49.398;7.614;2022-11-25T14:27:24;10.20;99.90
50570;DHT22;36525;49.398;7.614;2022-11-25T14:29:59;10.20;99.90
50570;DHT22;36525;49.398;7.614;2022-11-25T14:32:39;10.10;99.90
50570;DHT22;36525;49.398;7.614;2022-11-25T14:41:05;10.00;99.90
50570;DHT22;36525;49.398;7.614;2022-11-25T14:43:42;10.30;99.90
50570;DHT22;36525;49.398;7.614;2022-11-25T14:46:18;11.30;99.90
50570;DHT22;36525;49.398;7.614;2022-11-25T14:48:55;11.30;99.90
50570;DHT22;36525;49.398;7.614;2022-11-25T14:51:25;10.90;99.90
50570;DHT22;36525;49.398;7.614;2022-11-25T14:53:53;10.50;99.90
50570;DHT22;36525;49.398;7.614;2022-11-25T14:56:25;10.40;99.90
50570;DHT22;36525;49.398;7.614;2022-11-25T14:58:54;10.20;99.90
50570;DHT22;36525;49.398;7.614;2022-11-25T15:01:28;10.00;99.90
50570;DHT22;36525;49.398;7.614;2022-11-25T15:04:17;9.90;99.90
50570;DHT22;36525;49.398;7.614;2022-11-25T15:06:53;9.80;99.90
50570;DHT22;36525;49.398;7.614;2022-11-25T15:09:36;9.70;99.90
50570;DHT22;36525;49.398;7.614;2022-11-25T15:12:18;9.60;99.90
50570;DHT22;36525;49.398;7.614;2022-11-25T15:14:49;9.60;99.90
50570;DHT22;36525;49.398;7.614;2022-11-25T15:17:28;9.60;99.90
50570;DHT22;36525;49.398;7.614;2022-11-25T15:20:00;9.60;99.90
50570;DHT22;36525;49.398;7.614;2022-11-25T15:22:29;9.60;99.90
50570;DHT22;36525;49.398;7.614;2022-11-25T15:25:11;9.50;99.90
50570;DHT22;36525;49.398;7.614;2022-11-25T15:27:47;9.60;99.90
50570;DHT22;36525;49.398;7.614;2022-11-25T15:30:19;9.50;99.90
50570;DHT22;36525;49.398;7.614;2022-11-25T15:32:51;9.40;99.90
50570;DHT22;36525;49.398;7.614;2022-11-25T15:35:22;9.40;99.90
50570;DHT22;36525;49.398;7.614;2022-11-25T15:37:51;9.30;99.90
50570;DHT22;36525;49.398;7.614;2022-11-25T15:40:32;9.30;99.90
50570;DHT22;36525;49.398;7.614;2022-11-25T15:43:22;9.30;99.90
50570;DHT22;36525;49.398;7.614;2022-11-25T15:46:01;9.20;99.90
50570;DHT22;36525;49.398;7.614;2022-11-25T15:48:48;9.20;99.90
50570;DHT22;36525;49.398;7.614;2022-11-25T15:51:29;9.30;99.90
50570;DHT22;36525;49.398;7.614;2022-11-25T15:56:32;9.20;99.90
50570;DHT22;36525;49.398;7.614;2022-11-25T15:59:02;9.10;99.90
50570;DHT22;36525;49.398;7.614;2022-11-25T16:01:29;9.10;99.90
50570;DHT22;36525;49.398;7.614;2022-11-25T16:04:18;9.10;99.90
50570;DHT22;36525;49.398;7.614;2022-11-25T16:06:54;9.10;99.90
50570;DHT22;36525;49.398;7.614;2022-11-25T16:09:23;9.10;99.90
50570;DHT22;36525;49.398;7.614;2022-11-25T16:12:04;9.10;99.90
50570;DHT22;36525;49.398;7.614;2022-11-25T16:14:33;9.10;99.90
50570;DHT22;36525;49.398;7.614;2022-11-25T16:17:10;9.00;99.90
50570;DHT22;36525;49.398;7.614;2022-11-25T16:19:40;9.00;99.90
50570;DHT22;36525;49.398;7.614;2022-11-25T16:22:13;9.00;99.90
50570;DHT22;36525;49.398;7.614;2022-11-25T16:24:52;9.00;99.90
50570;DHT22;36525;49.398;7.614;2022-11-25T16:27:28;8.90;99.90
50570;DHT22;36525;49.398;7.614;2022-11-25T16:30:06;9.00;99.90
50570;DHT22;36525;49.398;7.614;2022-11-25T16:32:41;8.90;99.90
50570;DHT22;36525;49.398;7.614;2022-11-25T16:35:17;8.90;99.90
50570;DHT22;36525;49.398;7.614;2022-11-25T16:37:47;8.90;99.90
50570;DHT22;36525;49.398;7.614;2022-11-25T16:40:17;8.80;99.90
50570;DHT22;36525;49.398;7.614;2022-11-25T16:42:48;8.80;99.90
50570;DHT22;36525;49.398;7.614;2022-11-25T16:45:33;8.80;99.90
50570;DHT22;36525;49.398;7.614;2022-11-25T16:48:04;8.80;99.90
50570;DHT22;36525;49.398;7.614;2022-11-25T16:50:46;8.80;99.90
50570;DHT22;36525;49.398;7.614;2022-11-25T16:53:13;8.80;99.90
50570;DHT22;36525;49.398;7.614;2022-11-25T16:55:42;8.70;99.90
50570;DHT22;36525;49.398;7.614;2022-11-25T16:58:21;8.80;99.90
50570;DHT22;36525;49.398;7.614;2022-11-25T17:00:55;8.70;99.90
50570;DHT22;36525;49.398;7.614;2022-11-25T17:03:22;8.70;99.90
50570;DHT22;36525;49.398;7.614;2022-11-25T17:05:52;8.70;99.90
50570;DHT22;36525;49.398;7.614;2022-11-25T17:08:21;8.80;99.90
50570;DHT22;36525;49.398;7.614;2022-11-25T17:10:52;8.80;99.90
50570;DHT22;36525;49.398;7.614;2022-11-25T17:13:21;8.70;99.90
50570;DHT22;36525;49.398;7.614;2022-11-25T17:15:51;8.60;99.90
50570;DHT22;36525;49.398;7.614;2022-11-25T17:18:18;8.60;99.90
50570;DHT22;36525;49.398;7.614;2022-11-25T17:20:45;8.70;99.90
50570;DHT22;36525;49.398;7.614;2022-11-25T17:23:15;8.60;99.90
50570;DHT22;36525;49.398;7.614;2022-11-25T17:25:45;8.70;99.90
50570;DHT22;36525;49.398;7.614;2022-11-25T17:28:18;8.70;99.90
50570;DHT22;36525;49.398;7.614;2022-11-25T17:30:46;8.60;99.90
50570;DHT22;36525;49.398;7.614;2022-11-25T17:33:16;8.60;99.90
50570;DHT22;36525;49.398;7.614;2022-11-25T17:35:44;8.60;99.90
50570;DHT22;36525;49.398;7.614;2022-11-25T17:38:17;8.70;99.90
50570;DHT22;36525;49.398;7.614;2022-11-25T17:40:46;8.70;99.90
50570;DHT22;36525;49.398;7.614;2022-11-25T17:43:15;8.70;99.90
50570;DHT22;36525;49.398;7.614;2022-11-25T17:45:44;8.70;99.90
50570;DHT22;36525;49.398;7.614;2022-11-25T17:48:16;8.70;99.90
50570;DHT22;36525;49.398;7.614;2022-11-25T17:50:43;8.70;99.90
50570;DHT22;36525;49.398;7.614;2022-11-25T17:53:10;8.70;99.90
50570;DHT22;36525;49.398;7.614;2022-11-25T17:55:38;8.70;99.90
50570;DHT22;36525;49.398;7.614;2022-11-25T17:58:09;8.70;99.90
50570;DHT22;36525;49.398;7.614;2022-11-25T18:00:37;8.60;99.90
50570;DHT22;36525;49.398;7.614;2022-11-25T18:03:11;8.60;99.90